sensor_id;sensor_type;location;lat;lon;timestamp;P1;durP1;ratioP1;P2;durP2;ratioP2
52674;SDS011;38569;52.722;6.440;2022-09-09T00:01:08;7.70;;;5.25;;
52674;SDS011;38569;52.722;6.440;2022-09-09T00:03:59;8.02;;;5.75;;
52674;SDS011;38569;52.722;6.440;2022-09-09T00:06:34;10.33;;;6.47;;
52674;SDS011;38569;52.722;6.440;2022-09-09T00:09:25;11.02;;;6.88;;
52674;SDS011;38569;52.722;6.440;2022-09-09T00:20:43;9.32;;;6.25;;
52674;SDS011;38569;52.722;6.440;2022-09-09T00:23:16;7.65;;;5.40;;
52674;SDS011;38569;52.722;6.440;2022-09-09T00:26:03;11.20;;;6.10;;
52674;SDS011;38569;52.722;6.440;2022-09-09T00:31:23;11.52;;;7.20;;
52674;SDS011;38569;52.722;6.440;2022-09-09T00:33:53;11.35;;;6.25;;
52674;SDS011;38569;52.722;6.440;2022-09-09T00:36:23;11.98;;;6.20;;
52674;SDS011;38569;52.722;6.440;2022-09-09T00:38:57;12.23;;;6.47;;
52674;SDS011;38569;52.722;6.440;2022-09-09T00:44:21;8.55;;;6.20;;
52674;SDS011;38569;52.722;6.440;2022-09-09T00:46:56;10.20;;;6.47;;
52674;SDS011;38569;52.722;6.440;2022-09-09T00:55:20;10.10;;;6.03;;
52674;SDS011;38569;52.722;6.440;2022-09-09T00:57:51;10.00;;;5.65;;
52674;SDS011;38569;52.722;6.440;2022-09-09T01:08:17;10.57;;;5.38;;
52674;SDS011;38569;52.722;6.440;2022-09-09T01:10:58;11.05;;;5.40;;
52674;SDS011;38569;52.722;6.440;2022-09-09T01:13:26;10.95;;;5.30;;
52674;SDS011;38569;52.722;6.440;2022-09-09T01:15:58;9.23;;;5.38;;
52674;SDS011;38569;52.722;6.440;2022-09-09T01:18:28;8.25;;;4.88;;
52674;SDS011;38569;52.722;6.440;2022-09-09T01:21:05;16.08;;;6.07;;
52674;SDS011;38569;52.722;6.440;2022-09-09T01:26:39;47.03;;;7.00;;
52674;SDS011;38569;52.722;6.440;2022-09-09T01:29:14;28.45;;;6.57;;
52674;SDS011;38569;52.722;6.440;2022-09-09T01:31:55;109.45;;;9.70;;
52674;SDS011;38569;52.722;6.440;2022-09-09T01:34:39;20.45;;;6.45;;
52674;SDS011;38569;52.722;6.440;2022-09-09T01:37:10;30.90;;;7.28;;
52674;SDS011;38569;52.722;6.440;2022-09-09T01:39:37;20.67;;;7.03;;
52674;SDS011;38569;52.722;6.440;2022-09-09T01:42:07;18.10;;;7.03;;
52674;SDS011;38569;52.722;6.440;2022-09-09T01:44:36;23.67;;;8.80;;
52674;SDS011;38569;52.722;6.440;2022-09-09T01:47:03;21.48;;;7.13;;
52674;SDS011;38569;52.722;6.440;2022-09-09T01:49:29;28.17;;;8.32;;
52674;SDS011;38569;52.722;6.440;2022-09-09T01:51:56;20.80;;;9.10;;
52674;SDS011;38569;52.722;6.440;2022-09-09T01:54:23;13.32;;;6.88;;
52674;SDS011;38569;52.722;6.440;2022-09-09T02:02:26;13.30;;;7.72;;
52674;SDS011;38569;52.722;6.440;2022-09-09T02:05:00;15.48;;;9.02;;
52674;SDS011;38569;52.722;6.440;2022-09-09T02:07:43;12.48;;;7.80;;
52674;SDS011;38569;52.722;6.440;2022-09-09T02:10:20;10.70;;;7.80;;
52674;SDS011;38569;52.722;6.440;2022-09-09T02:12:53;14.20;;;7.30;;
52674;SDS011;38569;52.722;6.440;2022-09-09T02:15:26;11.32;;;7.45;;
52674;SDS011;38569;52.722;6.440;2022-09-09T02:17:56;13.77;;;7.32;;
52674;SDS011;38569;52.722;6.440;2022-09-09T02:20:23;23.70;;;11.40;;
52674;SDS011;38569;52.722;6.440;2022-09-09T02:22:51;40.90;;;15.48;;
52674;SDS011;38569;52.722;6.440;2022-09-09T02:25:19;23.77;;;10.73;;
52674;SDS011;38569;52.722;6.440;2022-09-09T02:27:49;19.13;;;9.32;;
52674;SDS011;38569;52.722;6.440;2022-09-09T02:30:16;19.73;;;10.30;;
52674;SDS011;38569;52.722;6.440;2022-09-09T02:32:44;26.73;;;11.00;;
52674;SDS011;38569;52.722;6.440;2022-09-09T02:35:14;15.65;;;9.57;;
52674;SDS011;38569;52.722;6.440;2022-09-09T02:37:44;17.35;;;10.05;;
52674;SDS011;38569;52.722;6.440;2022-09-09T02:40:13;22.52;;;9.70;;
52674;SDS011;38569;52.722;6.440;2022-09-09T02:42:43;16.20;;;9.25;;
52674;SDS011;38569;52.722;6.440;2022-09-09T02:45:11;14.38;;;7.80;;
52674;SDS011;38569;52.722;6.440;2022-09-09T02:58:04;17.02;;;10.65;;
52674;SDS011;38569;52.722;6.440;2022-09-09T03:00:33;18.60;;;10.20;;
52674;SDS011;38569;52.722;6.440;2022-09-09T03:03:01;32.60;;;15.70;;
52674;SDS011;38569;52.722;6.440;2022-09-09T03:05:31;20.42;;;12.40;;
52674;SDS011;38569;52.722;6.440;2022-09-09T03:07:57;38.53;;;16.40;;
52674;SDS011;38569;52.722;6.440;2022-09-09T03:10:23;18.65;;;11.35;;
52674;SDS011;38569;52.722;6.440;2022-09-09T03:12:49;17.13;;;11.10;;
52674;SDS011;38569;52.722;6.440;2022-09-09T03:15:15;18.38;;;12.55;;
52674;SDS011;38569;52.722;6.440;2022-09-09T03:17:41;17.98;;;11.55;;
52674;SDS011;38569;52.722;6.440;2022-09-09T03:20:07;16.80;;;11.57;;
52674;SDS011;38569;52.722;6.440;2022-09-09T03:22:33;20.40;;;11.90;;
52674;SDS011;38569;52.722;6.440;2022-09-09T03:25:00;26.63;;;13.38;;
52674;SDS011;38569;52.722;6.440;2022-09-09T03:27:27;18.05;;;10.40;;
52674;SDS011;38569;52.722;6.440;2022-09-09T03:29:53;17.20;;;9.75;;
52674;SDS011;38569;52.722;6.440;2022-09-09T03:32:20;18.40;;;11.65;;
52674;SDS011;38569;52.722;6.440;2022-09-09T03:34:47;16.73;;;9.60;;
52674;SDS011;38569;52.722;6.440;2022-09-09T03:37:15;19.95;;;11.15;;
52674;SDS011;38569;52.722;6.440;2022-09-09T03:39:42;13.40;;;9.60;;
52674;SDS011;38569;52.722;6.440;2022-09-09T03:42:08;15.02;;;10.15;;
52674;SDS011;38569;52.722;6.440;2022-09-09T03:44:37;23.52;;;12.52;;
52674;SDS011;38569;52.722;6.440;2022-09-09T03:47:03;19.77;;;12.13;;
52674;SDS011;38569;52.722;6.440;2022-09-09T03:49:28;13.25;;;9.60;;
52674;SDS011;38569;52.722;6.440;2022-09-09T03:51:57;23.65;;;12.90;;
52674;SDS011;38569;52.722;6.440;2022-09-09T03:54:24;15.60;;;10.98;;
52674;SDS011;38569;52.722;6.440;2022-09-09T03:56:50;14.13;;;10.20;;
52674;SDS011;38569;52.722;6.440;2022-09-09T03:59:15;19.05;;;11.93;;
52674;SDS011;38569;52.722;6.440;2022-09-09T04:01:41;17.55;;;12.50;;
52674;SDS011;38569;52.722;6.440;2022-09-09T04:04:07;15.38;;;10.85;;
52674;SDS011;38569;52.722;6.440;2022-09-09T04:06:33;17.70;;;10.82;;
52674;SDS011;38569;52.722;6.440;2022-09-09T04:09:00;17.95;;;11.18;;
52674;SDS011;38569;52.722;6.440;2022-09-09T04:11:28;16.55;;;11.13;;
52674;SDS011;38569;52.722;6.440;2022-09-09T04:13:54;16.83;;;11.52;;
52674;SDS011;38569;52.722;6.440;2022-09-09T04:16:20;23.58;;;12.00;;
52674;SDS011;38569;52.722;6.440;2022-09-09T04:18:45;27.42;;;14.38;;
52674;SDS011;38569;52.722;6.440;2022-09-09T04:21:11;21.42;;;13.30;;
52674;SDS011;38569;52.722;6.440;2022-09-09T04:23:37;26.92;;;16.63;;
52674;SDS011;38569;52.722;6.440;2022-09-09T04:26:04;28.10;;;15.07;;
52674;SDS011;38569;52.722;6.440;2022-09-09T04:28:31;13.60;;;11.27;;
52674;SDS011;38569;52.722;6.440;2022-09-09T04:31:06;20.67;;;12.70;;
52674;SDS011;38569;52.722;6.440;2022-09-09T04:33:34;17.15;;;12.05;;
52674;SDS011;38569;52.722;6.440;2022-09-09T04:36:00;17.92;;;13.52;;
52674;SDS011;38569;52.722;6.440;2022-09-09T04:38:26;20.45;;;12.90;;
52674;SDS011;38569;52.722;6.440;2022-09-09T04:40:51;22.73;;;14.23;;
52674;SDS011;38569;52.722;6.440;2022-09-09T04:43:19;19.20;;;14.07;;
52674;SDS011;38569;52.722;6.440;2022-09-09T04:45:49;14.70;;;11.48;;
52674;SDS011;38569;52.722;6.440;2022-09-09T04:48:16;20.13;;;13.07;;
52674;SDS011;38569;52.722;6.440;2022-09-09T04:50:42;33.67;;;17.95;;
52674;SDS011;38569;52.722;6.440;2022-09-09T04:53:07;26.73;;;15.93;;
52674;SDS011;38569;52.722;6.440;2022-09-09T04:55:33;21.60;;;15.02;;
52674;SDS011;38569;52.722;6.440;2022-09-09T04:58:06;19.83;;;14.45;;
52674;SDS011;38569;52.722;6.440;2022-09-09T05:00:34;25.95;;;15.98;;
52674;SDS011;38569;52.722;6.440;2022-09-09T05:03:03;22.58;;;14.07;;
52674;SDS011;38569;52.722;6.440;2022-09-09T05:05:30;21.27;;;11.77;;
52674;SDS011;38569;52.722;6.440;2022-09-09T05:08:00;21.20;;;14.07;;
52674;SDS011;38569;52.722;6.440;2022-09-09T05:10:31;19.52;;;13.95;;
52674;SDS011;38569;52.722;6.440;2022-09-09T05:12:57;18.83;;;12.70;;
52674;SDS011;38569;52.722;6.440;2022-09-09T05:15:23;19.38;;;12.57;;
52674;SDS011;38569;52.722;6.440;2022-09-09T05:17:49;20.42;;;14.43;;
52674;SDS011;38569;52.722;6.440;2022-09-09T05:20:17;14.85;;;12.23;;
52674;SDS011;38569;52.722;6.440;2022-09-09T05:22:43;16.77;;;11.85;;
52674;SDS011;38569;52.722;6.440;2022-09-09T05:25:09;18.13;;;11.43;;
52674;SDS011;38569;52.722;6.440;2022-09-09T05:27:35;17.17;;;12.23;;
52674;SDS011;38569;52.722;6.440;2022-09-09T05:30:00;19.13;;;12.68;;
52674;SDS011;38569;52.722;6.440;2022-09-09T05:32:26;21.27;;;14.02;;
52674;SDS011;38569;52.722;6.440;2022-09-09T05:34:52;24.27;;;13.90;;
52674;SDS011;38569;52.722;6.440;2022-09-09T05:37:18;19.88;;;14.18;;
52674;SDS011;38569;52.722;6.440;2022-09-09T05:39:44;18.40;;;12.65;;
52674;SDS011;38569;52.722;6.440;2022-09-09T05:42:10;24.45;;;15.38;;
52674;SDS011;38569;52.722;6.440;2022-09-09T05:44:35;22.23;;;14.27;;
52674;SDS011;38569;52.722;6.440;2022-09-09T05:47:02;16.27;;;11.65;;
52674;SDS011;38569;52.722;6.440;2022-09-09T05:49:28;14.73;;;11.25;;
52674;SDS011;38569;52.722;6.440;2022-09-09T05:51:54;15.35;;;12.13;;
52674;SDS011;38569;52.722;6.440;2022-09-09T05:54:19;15.50;;;11.38;;
52674;SDS011;38569;52.722;6.440;2022-09-09T05:56:45;17.40;;;12.98;;
52674;SDS011;38569;52.722;6.440;2022-09-09T05:59:11;23.85;;;13.50;;
52674;SDS011;38569;52.722;6.440;2022-09-09T06:01:37;20.15;;;13.20;;
52674;SDS011;38569;52.722;6.440;2022-09-09T06:04:07;24.10;;;14.70;;
52674;SDS011;38569;52.722;6.440;2022-09-09T06:06:34;20.42;;;13.48;;
52674;SDS011;38569;52.722;6.440;2022-09-09T06:09:02;17.48;;;11.27;;
52674;SDS011;38569;52.722;6.440;2022-09-09T06:11:31;24.42;;;15.73;;
52674;SDS011;38569;52.722;6.440;2022-09-09T06:13:59;13.25;;;10.65;;
52674;SDS011;38569;52.722;6.440;2022-09-09T06:16:26;22.05;;;13.40;;
52674;SDS011;38569;52.722;6.440;2022-09-09T06:18:53;22.60;;;14.43;;
52674;SDS011;38569;52.722;6.440;2022-09-09T06:21:25;18.45;;;13.02;;
52674;SDS011;38569;52.722;6.440;2022-09-09T06:23:52;21.08;;;13.45;;
52674;SDS011;38569;52.722;6.440;2022-09-09T06:26:19;19.58;;;11.57;;
52674;SDS011;38569;52.722;6.440;2022-09-09T06:28:48;17.55;;;11.88;;
52674;SDS011;38569;52.722;6.440;2022-09-09T06:31:16;16.08;;;11.32;;
52674;SDS011;38569;52.722;6.440;2022-09-09T06:33:46;14.20;;;10.95;;
52674;SDS011;38569;52.722;6.440;2022-09-09T06:36:17;24.63;;;13.82;;
52674;SDS011;38569;52.722;6.440;2022-09-09T06:38:47;16.98;;;12.13;;
52674;SDS011;38569;52.722;6.440;2022-09-09T06:41:14;21.17;;;13.90;;
52674;SDS011;38569;52.722;6.440;2022-09-09T06:43:41;24.50;;;14.23;;
52674;SDS011;38569;52.722;6.440;2022-09-09T06:48:38;17.10;;;12.13;;
52674;SDS011;38569;52.722;6.440;2022-09-09T06:53:42;17.90;;;12.10;;
52674;SDS011;38569;52.722;6.440;2022-09-09T06:58:44;18.75;;;10.93;;
52674;SDS011;38569;52.722;6.440;2022-09-09T07:01:11;14.35;;;12.13;;
52674;SDS011;38569;52.722;6.440;2022-09-09T07:03:38;16.65;;;9.82;;
52674;SDS011;38569;52.722;6.440;2022-09-09T07:06:05;18.75;;;9.90;;
52674;SDS011;38569;52.722;6.440;2022-09-09T07:08:32;13.85;;;10.85;;
52674;SDS011;38569;52.722;6.440;2022-09-09T07:11:02;15.35;;;9.32;;
52674;SDS011;38569;52.722;6.440;2022-09-09T07:13:32;12.93;;;8.25;;
52674;SDS011;38569;52.722;6.440;2022-09-09T07:16:09;12.05;;;8.82;;
52674;SDS011;38569;52.722;6.440;2022-09-09T07:18:37;11.90;;;8.90;;
52674;SDS011;38569;52.722;6.440;2022-09-09T07:21:04;10.05;;;8.20;;
52674;SDS011;38569;52.722;6.440;2022-09-09T07:23:31;15.20;;;8.93;;
52674;SDS011;38569;52.722;6.440;2022-09-09T07:25:57;15.93;;;6.93;;
52674;SDS011;38569;52.722;6.440;2022-09-09T07:28:24;14.63;;;8.70;;
52674;SDS011;38569;52.722;6.440;2022-09-09T07:33:21;10.23;;;7.57;;
52674;SDS011;38569;52.722;6.440;2022-09-09T07:35:47;11.95;;;7.47;;
52674;SDS011;38569;52.722;6.440;2022-09-09T07:38:12;12.57;;;7.13;;
52674;SDS011;38569;52.722;6.440;2022-09-09T07:40:39;14.68;;;7.97;;
52674;SDS011;38569;52.722;6.440;2022-09-09T07:43:05;12.07;;;7.53;;
52674;SDS011;38569;52.722;6.440;2022-09-09T07:45:31;12.07;;;6.93;;
52674;SDS011;38569;52.722;6.440;2022-09-09T07:47:59;8.88;;;6.35;;
52674;SDS011;38569;52.722;6.440;2022-09-09T07:50:25;12.00;;;6.82;;
52674;SDS011;38569;52.722;6.440;2022-09-09T07:52:51;12.93;;;6.75;;
52674;SDS011;38569;52.722;6.440;2022-09-09T07:55:19;12.93;;;6.97;;
52674;SDS011;38569;52.722;6.440;2022-09-09T07:57:52;11.80;;;6.63;;
52674;SDS011;38569;52.722;6.440;2022-09-09T08:00:18;9.27;;;7.53;;
52674;SDS011;38569;52.722;6.440;2022-09-09T08:02:46;11.15;;;6.80;;
52674;SDS011;38569;52.722;6.440;2022-09-09T08:05:12;11.88;;;6.47;;
52674;SDS011;38569;52.722;6.440;2022-09-09T08:07:38;11.68;;;5.38;;
52674;SDS011;38569;52.722;6.440;2022-09-09T08:10:04;10.48;;;5.50;;
52674;SDS011;38569;52.722;6.440;2022-09-09T08:12:31;12.40;;;6.30;;
52674;SDS011;38569;52.722;6.440;2022-09-09T08:14:57;12.77;;;7.95;;
52674;SDS011;38569;52.722;6.440;2022-09-09T08:17:24;16.60;;;6.78;;
52674;SDS011;38569;52.722;6.440;2022-09-09T08:19:49;16.20;;;6.53;;
52674;SDS011;38569;52.722;6.440;2022-09-09T08:22:15;15.55;;;5.57;;
52674;SDS011;38569;52.722;6.440;2022-09-09T08:24:41;12.80;;;5.30;;
52674;SDS011;38569;52.722;6.440;2022-09-09T08:27:07;8.73;;;4.10;;
52674;SDS011;38569;52.722;6.440;2022-09-09T08:29:34;10.90;;;4.57;;
52674;SDS011;38569;52.722;6.440;2022-09-09T08:32:00;12.43;;;4.22;;
52674;SDS011;38569;52.722;6.440;2022-09-09T08:34:27;10.82;;;3.75;;
52674;SDS011;38569;52.722;6.440;2022-09-09T08:36:53;9.98;;;3.30;;
52674;SDS011;38569;52.722;6.440;2022-09-09T08:39:20;11.38;;;4.80;;
52674;SDS011;38569;52.722;6.440;2022-09-09T08:55:48;10.00;;;3.83;;
52674;SDS011;38569;52.722;6.440;2022-09-09T08:58:22;10.55;;;3.92;;
52674;SDS011;38569;52.722;6.440;2022-09-09T09:03:45;14.18;;;4.35;;
52674;SDS011;38569;52.722;6.440;2022-09-09T09:11:38;6.65;;;2.95;;
52674;SDS011;38569;52.722;6.440;2022-09-09T09:14:17;8.68;;;3.38;;
52674;SDS011;38569;52.722;6.440;2022-09-09T09:19:14;6.88;;;2.70;;
52674;SDS011;38569;52.722;6.440;2022-09-09T09:21:42;10.52;;;3.58;;
52674;SDS011;38569;52.722;6.440;2022-09-09T09:24:15;12.30;;;3.20;;
52674;SDS011;38569;52.722;6.440;2022-09-09T09:26:47;8.68;;;3.05;;
52674;SDS011;38569;52.722;6.440;2022-09-09T09:29:14;6.97;;;2.53;;
52674;SDS011;38569;52.722;6.440;2022-09-09T09:31:51;7.38;;;2.30;;
52674;SDS011;38569;52.722;6.440;2022-09-09T09:34:19;9.65;;;2.42;;
52674;SDS011;38569;52.722;6.440;2022-09-09T09:37:07;9.02;;;2.47;;
52674;SDS011;38569;52.722;6.440;2022-09-09T09:39:42;9.25;;;2.40;;
52674;SDS011;38569;52.722;6.440;2022-09-09T09:42:15;8.13;;;2.72;;
52674;SDS011;38569;52.722;6.440;2022-09-09T09:44:42;10.43;;;2.15;;
52674;SDS011;38569;52.722;6.440;2022-09-09T09:49:39;6.72;;;2.50;;
52674;SDS011;38569;52.722;6.440;2022-09-09T09:52:31;6.75;;;2.30;;
52674;SDS011;38569;52.722;6.440;2022-09-09T09:54:59;6.13;;;2.40;;
52674;SDS011;38569;52.722;6.440;2022-09-09T09:57:29;7.50;;;2.35;;
52674;SDS011;38569;52.722;6.440;2022-09-09T10:00:00;7.25;;;2.33;;
52674;SDS011;38569;52.722;6.440;2022-09-09T10:02:47;9.02;;;2.72;;
52674;SDS011;38569;52.722;6.440;2022-09-09T10:05:15;10.52;;;2.20;;
52674;SDS011;38569;52.722;6.440;2022-09-09T10:07:43;8.52;;;2.35;;
52674;SDS011;38569;52.722;6.440;2022-09-09T10:10:34;9.40;;;2.15;;
52674;SDS011;38569;52.722;6.440;2022-09-09T10:19:11;4.65;;;1.70;;
52674;SDS011;38569;52.722;6.440;2022-09-09T10:24:20;6.82;;;2.00;;
52674;SDS011;38569;52.722;6.440;2022-09-09T10:33:02;7.50;;;1.65;;
52674;SDS011;38569;52.722;6.440;2022-09-09T10:38:17;8.98;;;2.03;;
52674;SDS011;38569;52.722;6.440;2022-09-09T10:46:23;8.85;;;2.15;;
52674;SDS011;38569;52.722;6.440;2022-09-09T10:49:16;10.40;;;2.25;;
52674;SDS011;38569;52.722;6.440;2022-09-09T10:54:25;9.48;;;2.42;;
52674;SDS011;38569;52.722;6.440;2022-09-09T10:57:02;8.13;;;2.17;;
52674;SDS011;38569;52.722;6.440;2022-09-09T10:59:33;11.60;;;2.83;;
52674;SDS011;38569;52.722;6.440;2022-09-09T11:02:12;7.80;;;2.15;;
52674;SDS011;38569;52.722;6.440;2022-09-09T11:07:44;7.03;;;1.77;;
52674;SDS011;38569;52.722;6.440;2022-09-09T11:10:41;10.82;;;3.05;;
52674;SDS011;38569;52.722;6.440;2022-09-09T11:13:22;10.68;;;2.60;;
52674;SDS011;38569;52.722;6.440;2022-09-09T11:15:58;5.97;;;1.80;;
52674;SDS011;38569;52.722;6.440;2022-09-09T11:18:44;7.38;;;2.20;;
52674;SDS011;38569;52.722;6.440;2022-09-09T11:21:21;6.53;;;1.98;;
52674;SDS011;38569;52.722;6.440;2022-09-09T11:23:59;10.85;;;2.92;;
52674;SDS011;38569;52.722;6.440;2022-09-09T11:26:45;9.23;;;1.90;;
52674;SDS011;38569;52.722;6.440;2022-09-09T11:40:30;9.70;;;1.98;;
52674;SDS011;38569;52.722;6.440;2022-09-09T11:43:10;5.55;;;1.95;;
52674;SDS011;38569;52.722;6.440;2022-09-09T11:45:42;8.68;;;2.28;;
52674;SDS011;38569;52.722;6.440;2022-09-09T11:48:57;6.65;;;1.80;;
52674;SDS011;38569;52.722;6.440;2022-09-09T11:56:26;7.22;;;2.40;;
52674;SDS011;38569;52.722;6.440;2022-09-09T11:59:20;5.53;;;1.70;;
52674;SDS011;38569;52.722;6.440;2022-09-09T12:01:54;6.38;;;1.75;;
52674;SDS011;38569;52.722;6.440;2022-09-09T12:07:00;7.20;;;2.55;;
52674;SDS011;38569;52.722;6.440;2022-09-09T12:09:46;6.00;;;1.55;;
52674;SDS011;38569;52.722;6.440;2022-09-09T12:14:59;5.57;;;1.48;;
52674;SDS011;38569;52.722;6.440;2022-09-09T12:17:28;7.57;;;1.90;;
52674;SDS011;38569;52.722;6.440;2022-09-09T12:20:12;6.10;;;1.48;;
52674;SDS011;38569;52.722;6.440;2022-09-09T12:22:51;6.30;;;1.40;;
52674;SDS011;38569;52.722;6.440;2022-09-09T12:28:23;7.25;;;1.92;;
52674;SDS011;38569;52.722;6.440;2022-09-09T12:33:22;10.30;;;1.67;;
52674;SDS011;38569;52.722;6.440;2022-09-09T12:35:54;7.38;;;1.55;;
52674;SDS011;38569;52.722;6.440;2022-09-09T12:38:23;8.93;;;1.85;;
52674;SDS011;38569;52.722;6.440;2022-09-09T12:40:59;6.22;;;1.60;;
52674;SDS011;38569;52.722;6.440;2022-09-09T12:43:26;5.65;;;1.77;;
52674;SDS011;38569;52.722;6.440;2022-09-09T12:46:03;8.95;;;2.35;;
52674;SDS011;38569;52.722;6.440;2022-09-09T12:48:39;8.68;;;1.75;;
52674;SDS011;38569;52.722;6.440;2022-09-09T12:53:58;5.55;;;1.25;;
52674;SDS011;38569;52.722;6.440;2022-09-09T12:56:25;5.75;;;1.80;;
52674;SDS011;38569;52.722;6.440;2022-09-09T12:58:55;5.63;;;1.27;;
52674;SDS011;38569;52.722;6.440;2022-09-09T13:01:32;4.18;;;1.45;;
52674;SDS011;38569;52.722;6.440;2022-09-09T13:03:58;6.50;;;1.55;;
52674;SDS011;38569;52.722;6.440;2022-09-09T13:06:25;4.65;;;1.30;;
52674;SDS011;38569;52.722;6.440;2022-09-09T13:08:56;5.35;;;1.63;;
52674;SDS011;38569;52.722;6.440;2022-09-09T13:11:30;5.22;;;1.35;;
52674;SDS011;38569;52.722;6.440;2022-09-09T13:14:16;3.72;;;1.35;;
52674;SDS011;38569;52.722;6.440;2022-09-09T13:16:53;5.13;;;1.40;;
52674;SDS011;38569;52.722;6.440;2022-09-09T13:19:23;4.97;;;1.48;;
52674;SDS011;38569;52.722;6.440;2022-09-09T13:21:54;3.13;;;0.85;;
52674;SDS011;38569;52.722;6.440;2022-09-09T13:24:33;2.50;;;0.88;;
52674;SDS011;38569;52.722;6.440;2022-09-09T13:27:00;4.68;;;1.00;;
52674;SDS011;38569;52.722;6.440;2022-09-09T13:29:50;3.17;;;1.20;;
52674;SDS011;38569;52.722;6.440;2022-09-09T13:32:22;6.32;;;1.60;;
52674;SDS011;38569;52.722;6.440;2022-09-09T13:34:56;6.25;;;1.30;;
52674;SDS011;38569;52.722;6.440;2022-09-09T13:39:53;5.93;;;1.75;;
52674;SDS011;38569;52.722;6.440;2022-09-09T13:42:26;6.78;;;1.75;;
52674;SDS011;38569;52.722;6.440;2022-09-09T13:44:55;4.57;;;1.95;;
52674;SDS011;38569;52.722;6.440;2022-09-09T13:47:26;6.10;;;1.92;;
52674;SDS011;38569;52.722;6.440;2022-09-09T13:50:21;4.82;;;1.52;;
52674;SDS011;38569;52.722;6.440;2022-09-09T13:52:49;3.88;;;1.45;;
52674;SDS011;38569;52.722;6.440;2022-09-09T13:55:16;6.68;;;1.55;;
52674;SDS011;38569;52.722;6.440;2022-09-09T13:58:17;4.15;;;1.30;;
52674;SDS011;38569;52.722;6.440;2022-09-09T14:00:40;4.03;;;1.10;;
52674;SDS011;38569;52.722;6.440;2022-09-09T14:03:06;5.05;;;1.50;;
52674;SDS011;38569;52.722;6.440;2022-09-09T14:05:33;3.75;;;0.95;;
52674;SDS011;38569;52.722;6.440;2022-09-09T14:07:59;4.25;;;1.10;;
52674;SDS011;38569;52.722;6.440;2022-09-09T14:10:28;2.60;;;0.90;;
52674;SDS011;38569;52.722;6.440;2022-09-09T14:12:54;2.25;;;1.08;;
52674;SDS011;38569;52.722;6.440;2022-09-09T14:15:19;1.88;;;0.80;;
52674;SDS011;38569;52.722;6.440;2022-09-09T14:17:46;5.72;;;1.20;;
52674;SDS011;38569;52.722;6.440;2022-09-09T14:20:13;4.38;;;1.10;;
52674;SDS011;38569;52.722;6.440;2022-09-09T14:22:42;3.08;;;0.90;;
52674;SDS011;38569;52.722;6.440;2022-09-09T14:25:09;3.63;;;1.08;;
52674;SDS011;38569;52.722;6.440;2022-09-09T14:27:34;2.75;;;1.02;;
52674;SDS011;38569;52.722;6.440;2022-09-09T14:30:02;2.05;;;0.90;;
52674;SDS011;38569;52.722;6.440;2022-09-09T14:32:28;4.28;;;1.52;;
52674;SDS011;38569;52.722;6.440;2022-09-09T14:34:54;4.28;;;1.38;;
52674;SDS011;38569;52.722;6.440;2022-09-09T14:37:19;8.18;;;1.00;;
52674;SDS011;38569;52.722;6.440;2022-09-09T14:39:46;3.70;;;1.02;;
52674;SDS011;38569;52.722;6.440;2022-09-09T14:42:13;4.40;;;1.27;;
52674;SDS011;38569;52.722;6.440;2022-09-09T14:44:39;3.33;;;1.10;;
52674;SDS011;38569;52.722;6.440;2022-09-09T14:47:05;3.47;;;1.35;;
52674;SDS011;38569;52.722;6.440;2022-09-09T14:49:33;4.65;;;1.08;;
52674;SDS011;38569;52.722;6.440;2022-09-09T14:52:02;4.00;;;1.00;;
52674;SDS011;38569;52.722;6.440;2022-09-09T14:54:29;3.83;;;1.50;;
52674;SDS011;38569;52.722;6.440;2022-09-09T14:56:56;2.72;;;0.95;;
52674;SDS011;38569;52.722;6.440;2022-09-09T14:59:22;3.67;;;0.85;;
52674;SDS011;38569;52.722;6.440;2022-09-09T15:01:48;2.95;;;1.20;;
52674;SDS011;38569;52.722;6.440;2022-09-09T15:04:14;6.05;;;1.23;;
52674;SDS011;38569;52.722;6.440;2022-09-09T15:06:41;3.38;;;1.00;;
52674;SDS011;38569;52.722;6.440;2022-09-09T15:09:09;2.80;;;1.10;;
52674;SDS011;38569;52.722;6.440;2022-09-09T15:11:36;2.47;;;0.82;;
52674;SDS011;38569;52.722;6.440;2022-09-09T15:14:06;3.47;;;1.20;;
52674;SDS011;38569;52.722;6.440;2022-09-09T15:16:33;5.03;;;1.30;;
52674;SDS011;38569;52.722;6.440;2022-09-09T15:19:00;4.78;;;1.77;;
52674;SDS011;38569;52.722;6.440;2022-09-09T15:21:27;4.75;;;1.65;;
52674;SDS011;38569;52.722;6.440;2022-09-09T15:23:54;3.05;;;1.25;;
52674;SDS011;38569;52.722;6.440;2022-09-09T15:26:20;4.45;;;1.30;;
52674;SDS011;38569;52.722;6.440;2022-09-09T15:28:47;4.45;;;1.42;;
52674;SDS011;38569;52.722;6.440;2022-09-09T15:31:24;5.35;;;1.92;;
52674;SDS011;38569;52.722;6.440;2022-09-09T15:38:59;5.82;;;1.70;;
52674;SDS011;38569;52.722;6.440;2022-09-09T15:41:26;4.78;;;1.65;;
52674;SDS011;38569;52.722;6.440;2022-09-09T15:43:53;4.28;;;1.60;;
52674;SDS011;38569;52.722;6.440;2022-09-09T15:51:34;6.85;;;1.45;;
52674;SDS011;38569;52.722;6.440;2022-09-09T15:54:02;4.90;;;1.38;;
52674;SDS011;38569;52.722;6.440;2022-09-09T15:56:29;4.13;;;1.40;;
52674;SDS011;38569;52.722;6.440;2022-09-09T15:58:55;5.53;;;1.80;;
52674;SDS011;38569;52.722;6.440;2022-09-09T16:01:22;3.47;;;1.40;;
52674;SDS011;38569;52.722;6.440;2022-09-09T16:03:49;3.33;;;1.60;;
52674;SDS011;38569;52.722;6.440;2022-09-09T16:06:18;3.83;;;2.45;;
52674;SDS011;38569;52.722;6.440;2022-09-09T16:08:47;5.45;;;1.52;;
52674;SDS011;38569;52.722;6.440;2022-09-09T16:11:18;3.10;;;1.45;;
52674;SDS011;38569;52.722;6.440;2022-09-09T16:13:47;6.25;;;1.73;;
52674;SDS011;38569;52.722;6.440;2022-09-09T16:16:14;5.05;;;1.80;;
52674;SDS011;38569;52.722;6.440;2022-09-09T16:18:46;5.15;;;1.70;;
52674;SDS011;38569;52.722;6.440;2022-09-09T16:21:17;5.63;;;2.10;;
52674;SDS011;38569;52.722;6.440;2022-09-09T16:23:51;4.88;;;1.83;;
52674;SDS011;38569;52.722;6.440;2022-09-09T16:26:20;6.47;;;2.15;;
52674;SDS011;38569;52.722;6.440;2022-09-09T16:28:46;5.68;;;2.10;;
52674;SDS011;38569;52.722;6.440;2022-09-09T16:31:14;8.43;;;2.88;;
52674;SDS011;38569;52.722;6.440;2022-09-09T16:33:42;5.85;;;2.22;;
52674;SDS011;38569;52.722;6.440;2022-09-09T16:36:09;6.53;;;2.13;;
52674;SDS011;38569;52.722;6.440;2022-09-09T16:38:37;7.03;;;2.30;;
52674;SDS011;38569;52.722;6.440;2022-09-09T16:41:04;5.28;;;2.78;;
52674;SDS011;38569;52.722;6.440;2022-09-09T16:43:34;6.53;;;1.92;;
52674;SDS011;38569;52.722;6.440;2022-09-09T16:46:01;5.72;;;2.47;;
52674;SDS011;38569;52.722;6.440;2022-09-09T16:48:40;7.35;;;2.47;;
52674;SDS011;38569;52.722;6.440;2022-09-09T16:51:09;5.20;;;2.25;;
52674;SDS011;38569;52.722;6.440;2022-09-09T16:53:57;6.45;;;2.03;;
52674;SDS011;38569;52.722;6.440;2022-09-09T16:56:25;5.95;;;2.25;;
52674;SDS011;38569;52.722;6.440;2022-09-09T16:58:54;7.35;;;2.20;;
52674;SDS011;38569;52.722;6.440;2022-09-09T17:01:22;6.57;;;2.30;;
52674;SDS011;38569;52.722;6.440;2022-09-09T17:03:52;3.05;;;1.17;;
52674;SDS011;38569;52.722;6.440;2022-09-09T17:06:18;5.47;;;1.77;;
52674;SDS011;38569;52.722;6.440;2022-09-09T17:08:44;4.95;;;1.65;;
52674;SDS011;38569;52.722;6.440;2022-09-09T17:11:11;4.20;;;1.55;;
52674;SDS011;38569;52.722;6.440;2022-09-09T17:13:41;5.07;;;1.67;;
52674;SDS011;38569;52.722;6.440;2022-09-09T17:16:08;4.55;;;2.00;;
52674;SDS011;38569;52.722;6.440;2022-09-09T17:18:35;6.22;;;1.75;;
52674;SDS011;38569;52.722;6.440;2022-09-09T17:21:05;6.32;;;1.67;;
52674;SDS011;38569;52.722;6.440;2022-09-09T17:23:33;3.05;;;1.63;;
52674;SDS011;38569;52.722;6.440;2022-09-09T17:26:03;5.45;;;1.70;;
52674;SDS011;38569;52.722;6.440;2022-09-09T17:28:30;5.22;;;1.83;;